Time;durP1;ratioP1;P1;durP2;ratioP2;P2;SDS_P1;SDS_P2;PMS_P1;PMS_P2;Temp;Humidity;BMP_temperature;BMP_pressure;BME280_temperature;BME280_humidity;BME280_pressure;Samples;Min_cycle;Max_cycle;Signal;HPM_P1;HPM_P2
2023/09/11 00:01:05;;;;;;;10.87;9.87;;;;;;;19.02;100.00;96456.94;5090925;27;105395;-65
2023/09/11 00:03:32;;;;;;;10.17;9.27;;;;;;;19.06;100.00;96451.75;5090413;27;105408;-65
2023/09/11 00:06:05;;;;;;;10.67;9.57;;;;;;;19.02;100.00;96450.78;5094225;27;102349;-65
2023/09/11 00:08:32;;;;;;;11.17;10.03;;;;;;;18.97;100.00;96448.19;5089099;27;105506;-65
2023/09/11 00:10:59;;;;;;;10.90;9.90;;;;;;;18.67;100.00;96440.69;5090111;27;101914;-65
2023/09/11 00:13:26;;;;;;;9.27;8.57;;;;;;;18.72;100.00;96446.81;5091100;27;105256;-65
2023/09/11 00:15:53;;;;;;;10.13;9.03;;;;;;;18.72;100.00;96451.38;5076348;27;104381;-65
2023/09/11 00:18:20;;;;;;;10.30;9.30;;;;;;;18.74;100.00;96446.50;5071624;27;101944;-65
2023/09/11 00:20:47;;;;;;;10.30;9.40;;;;;;;18.85;100.00;96437.13;5070392;27;105365;-65
2023/09/11 00:23:16;;;;;;;9.83;8.93;;;;;;;18.89;100.00;96441.59;5069366;27;105548;-65
2023/09/11 00:25:43;;;;;;;10.43;9.53;;;;;;;18.86;100.00;96438.72;5083164;27;101943;-65
2023/09/11 00:28:10;;;;;;;10.17;9.33;;;;;;;18.80;100.00;96442.63;5092915;27;105548;-65
2023/09/11 00:30:37;;;;;;;10.20;9.40;;;;;;;-141.26;100.00;62741.75;5112824;27;211270;-64
2023/09/11 00:33:05;;;;;;;10.47;9.47;;;;;;;-141.26;100.00;62741.75;5184521;27;20313;-64
2023/09/11 00:35:32;;;;;;;10.07;9.20;;;;;;;-141.26;100.00;62741.75;5184066;27;20234;-64
2023/09/11 00:37:59;;;;;;;10.10;9.23;;;;;;;-141.26;100.00;62741.75;5174862;27;20223;-64
2023/09/11 00:40:28;;;;;;;10.43;9.53;;;;;;;-141.26;100.00;62741.75;5165197;27;20215;-64
2023/09/11 00:42:55;;;;;;;10.90;9.80;;;;;;;-141.26;100.00;62741.75;5163606;27;20223;-64
2023/09/11 00:45:22;;;;;;;10.30;9.50;;;;;;;-141.26;100.00;62741.75;5169231;27;20227;-64
2023/09/11 00:47:49;;;;;;;11.10;10.10;;;;;;;-141.26;100.00;62741.75;5173238;27;20280;-64
2023/09/11 00:50:18;;;;;;;10.17;9.27;;;;;;;-141.26;100.00;62741.75;5163437;27;20219;-65
2023/09/11 00:52:45;;;;;;;11.13;9.13;;;;;;;-141.26;100.00;62741.75;5163442;27;20229;-65
2023/09/11 00:55:13;;;;;;;9.90;9.10;;;;;;;-141.26;100.00;62741.75;5168198;27;20302;-64
2023/09/11 00:57:43;;;;;;;9.97;9.03;;;;;;;-141.26;100.00;62741.75;5164892;27;20223;-64
2023/09/11 01:00:11;;;;;;;10.60;9.60;;;;;;;-141.26;100.00;62741.75;5163515;27;20220;-64
2023/09/11 01:02:38;;;;;;;10.73;9.77;;;;;;;-141.26;100.00;62741.75;5163617;27;20210;-64
2023/09/11 01:05:07;;;;;;;10.50;9.53;;;;;;;-141.26;100.00;62741.75;5168289;27;20314;-65
2023/09/11 01:07:34;;;;;;;11.00;9.97;;;;;;;-141.26;100.00;62741.75;5176274;27;20229;-67
2023/09/11 01:10:05;;;;;;;11.13;10.17;;;;;;;-141.26;100.00;62741.75;5184677;27;20210;-67
2023/09/11 01:12:32;;;;;;;11.03;10.00;;;;;;;-141.26;100.00;62741.75;5184372;27;20230;-67
2023/09/11 01:15:03;;;;;;;11.50;10.50;;;;;;;-141.26;100.00;62741.75;5199763;27;20230;-67
2023/09/11 01:17:39;;;;;;;10.40;9.50;;;;;;;-141.26;100.00;62741.75;5184447;27;20221;-67
2023/09/11 01:20:51;;;;;;;10.27;9.37;;;;;;;-141.26;100.00;62741.75;5186449;27;20218;-67
2023/09/11 01:23:43;;;;;;;10.33;9.37;;;;;;;-141.26;100.00;62741.75;5175554;27;20385;-67
2023/09/11 01:26:29;;;;;;;10.40;9.50;;;;;;;-141.26;100.00;62741.75;5182768;27;20269;-67
2023/09/11 01:29:12;;;;;;;10.47;9.43;;;;;;;-141.26;100.00;62741.75;5167536;27;20243;-65
2023/09/11 01:31:39;;;;;;;10.60;9.60;;;;;;;-141.26;100.00;62741.75;5169571;27;20234;-65
2023/09/11 01:34:07;;;;;;;11.60;10.60;;;;;;;-141.26;100.00;62741.75;5166899;27;20296;-65
2023/09/11 01:36:34;;;;;;;12.03;10.93;;;;;;;-141.26;100.00;62741.75;5169574;27;20221;-65
2023/09/11 01:39:03;;;;;;;10.10;9.23;;;;;;;-141.26;100.00;62741.75;5187872;27;20214;-65
2023/09/11 01:41:34;;;;;;;10.77;9.87;;;;;;;-141.26;100.00;62741.75;5187040;27;20271;-65
2023/09/11 01:44:08;;;;;;;11.60;10.60;;;;;;;-141.26;100.00;62741.75;5187898;27;20232;-65
2023/09/11 01:46:37;;;;;;;11.37;10.37;;;;;;;-141.26;100.00;62741.75;5188877;27;20219;-65
2023/09/11 01:49:05;;;;;;;10.83;10.03;;;;;;;-141.26;100.00;62741.75;5187163;27;20309;-66
2023/09/11 01:51:33;;;;;;;11.73;10.67;;;;;;;-141.26;100.00;62741.75;5185501;27;20210;-66
2023/09/11 01:54:01;;;;;;;11.43;10.33;;;;;;;-141.26;100.00;62741.75;5187471;27;20219;-65
2023/09/11 01:56:28;;;;;;;12.80;11.60;;;;;;;-141.26;100.00;62741.75;5175491;27;20216;-65
2023/09/11 01:58:57;;;;;;;13.87;12.47;;;;;;;-141.26;100.00;62741.75;5166475;27;20279;-65
2023/09/11 02:01:24;;;;;;;12.37;11.27;;;;;;;-141.26;100.00;62741.75;5166310;27;20318;-64
2023/09/11 02:03:53;;;;;;;11.93;10.77;;;;;;;-141.26;100.00;62741.75;5167229;27;20247;-65
2023/09/11 02:06:20;;;;;;;13.77;12.57;;;;;;;-141.26;100.00;62741.75;5166244;27;20248;-65
2023/09/11 02:08:47;;;;;;;14.30;12.83;;;;;;;-141.26;100.00;62741.75;5166342;27;20271;-65
2023/09/11 02:11:14;;;;;;;12.37;11.17;;;;;;;-141.26;100.00;62741.75;5166244;27;20313;-65
2023/09/11 02:13:42;;;;;;;12.63;11.53;;;;;;;-141.26;100.00;62741.75;5165995;27;20235;-65
2023/09/11 02:16:09;;;;;;;13.10;11.93;;;;;;;-141.26;100.00;62741.75;5166230;27;20226;-85
2023/09/11 02:18:39;;;;;;;29.43;13.13;;;;;;;-141.26;100.00;62741.75;5166588;27;20222;-89
2023/09/11 02:21:20;;;;;;;12.93;11.63;;;;;;;-141.26;100.00;62741.75;5166395;27;20218;-90
2023/09/11 02:23:52;;;;;;;12.50;11.50;;;;;;;-141.26;100.00;62741.75;5171892;27;20210;-89
2023/09/11 02:26:19;;;;;;;12.30;11.10;;;;;;;-141.26;100.00;62741.75;5186643;27;20227;-80
2023/09/11 02:28:46;;;;;;;11.83;10.60;;;;;;;-141.26;100.00;62741.75;5188206;27;20262;-80
2023/09/11 02:31:14;;;;;;;12.27;11.20;;;;;;;-141.26;100.00;62741.75;5185238;27;20336;-80
2023/09/11 02:33:41;;;;;;;11.63;10.67;;;;;;;-141.26;100.00;62741.75;5187084;27;20303;-81
2023/09/11 02:36:08;;;;;;;11.27;10.10;;;;;;;-141.26;100.00;62741.75;5186719;27;20233;-80
2023/09/11 02:38:36;;;;;;;10.80;9.97;;;;;;;-141.26;100.00;62741.75;5174245;27;20231;-81
2023/09/11 02:41:03;;;;;;;12.10;10.90;;;;;;;-141.26;100.00;62741.75;5167046;27;20218;-81
2023/09/11 02:43:30;;;;;;;13.43;12.10;;;;;;;-141.26;100.00;62741.75;5166162;27;20246;-81
2023/09/11 02:45:57;;;;;;;12.80;11.50;;;;;;;-141.26;100.00;62741.75;5165836;27;20284;-82
2023/09/11 02:48:24;;;;;;;12.73;11.43;;;;;;;-141.26;100.00;62741.75;5165772;27;20214;-82
2023/09/11 02:50:51;;;;;;;12.70;11.30;;;;;;;-141.26;100.00;62741.75;5165576;27;20227;-82
2023/09/11 02:53:18;;;;;;;12.47;11.17;;;;;;;-141.26;100.00;62741.75;5165675;27;20246;-82
2023/09/11 02:55:46;;;;;;;13.30;12.17;;;;;;;-141.26;100.00;62741.75;5180511;27;20312;-82
2023/09/11 02:58:13;;;;;;;12.63;11.43;;;;;;;-141.26;100.00;62741.75;5174522;27;20280;-81
2023/09/11 03:00:40;;;;;;;12.70;11.70;;;;;;;-141.26;100.00;62741.75;5186236;27;20238;-82
2023/09/11 03:03:07;;;;;;;12.00;11.00;;;;;;;-141.26;100.00;62741.75;5186749;27;20252;-82
2023/09/11 03:05:34;;;;;;;11.13;10.23;;;;;;;-141.26;100.00;62741.75;5184727;27;20229;-82
2023/09/11 03:08:01;;;;;;;11.23;10.23;;;;;;;-141.26;100.00;62741.75;5185716;27;20223;-82
2023/09/11 03:10:28;;;;;;;11.17;10.27;;;;;;;-141.26;100.00;62741.75;5181387;27;20262;-82
2023/09/11 03:13:07;;;;;;;11.67;10.67;;;;;;;-141.26;100.00;62741.75;5174985;27;20234;-88
2023/09/11 03:15:35;;;;;;;11.43;10.43;;;;;;;-141.26;100.00;62741.75;5185758;27;20213;-87
2023/09/11 03:18:03;;;;;;;12.37;11.30;;;;;;;-141.26;100.00;62741.75;5185894;27;20203;-84
2023/09/11 03:20:45;;;;;;;10.33;9.43;;;;;;;-141.26;100.00;62741.75;5179968;27;33384;-85
2023/09/11 03:23:21;;;;;;;12.00;10.83;;;;;;;-141.26;100.00;62741.75;5165444;27;20223;-85
2023/09/11 03:25:55;;;;;;;12.70;11.40;;;;;;;-141.26;100.00;62741.75;5173818;27;20222;-84
2023/09/11 03:28:33;;;;;;;11.67;10.57;;;;;;;-141.26;100.00;62741.75;5203287;27;20242;-85
2023/09/11 03:31:15;;;;;;;11.87;10.77;;;;;;;-141.26;100.00;62741.75;5177642;27;20214;-84
2023/09/11 03:33:42;;;;;;;13.60;12.30;;;;;;;-141.26;100.00;62741.75;5164855;27;20227;-84
2023/09/11 03:36:09;;;;;;;12.87;11.67;;;;;;;-141.26;100.00;62741.75;5170036;27;20218;-84
2023/09/11 03:38:37;;;;;;;13.63;12.23;;;;;;;-141.26;100.00;62741.75;5185681;27;20309;-82
2023/09/11 03:41:04;;;;;;;13.80;12.50;;;;;;;-141.26;100.00;62741.75;5171976;27;20653;-82
2023/09/11 03:43:32;;;;;;;13.00;11.70;;;;;;;-141.26;100.00;62741.75;5164542;27;20217;-81
2023/09/11 03:45:59;;;;;;;14.73;13.27;;;;;;;-141.26;100.00;62741.75;5165927;27;20231;-83
2023/09/11 03:48:26;;;;;;;13.87;12.57;;;;;;;-141.26;100.00;62741.75;5164771;27;20220;-82
2023/09/11 03:50:53;;;;;;;12.67;11.57;;;;;;;-141.26;100.00;62741.75;5180349;27;20224;-83
2023/09/11 03:53:21;;;;;;;14.60;13.13;;;;;;;-141.26;100.00;62741.75;5168535;27;20229;-87
2023/09/11 03:55:48;;;;;;;13.40;12.20;;;;;;;-141.26;100.00;62741.75;5166769;27;20214;-86
2023/09/11 03:58:17;;;;;;;13.30;12.17;;;;;;;-141.26;100.00;62741.75;5185094;27;20223;-80
2023/09/11 04:00:46;;;;;;;12.93;10.83;;;;;;;-141.26;100.00;62741.75;5185542;27;20222;-82
2023/09/11 04:03:13;;;;;;;12.90;11.80;;;;;;;-141.26;100.00;62741.75;5171959;27;20219;-81
2023/09/11 04:05:40;;;;;;;13.00;11.67;;;;;;;-141.26;100.00;62741.75;5164349;27;20238;-81
2023/09/11 04:08:21;;;;;;;13.63;12.43;;;;;;;-141.26;100.00;62741.75;5164681;27;20221;-93
2023/09/11 04:10:49;;;;;;;13.93;12.63;;;;;;;-141.26;100.00;62741.75;5164716;27;20308;-90
2023/09/11 04:13:16;;;;;;;13.07;11.80;;;;;;;-141.26;100.00;62741.75;5179184;27;20223;-89
2023/09/11 04:15:46;;;;;;;13.67;12.30;;;;;;;-141.26;100.00;62741.75;5184854;27;20245;-86
2023/09/11 04:18:15;;;;;;;14.20;12.40;;;;;;;-141.26;100.00;62741.75;5203174;27;20206;-87
2023/09/11 04:20:45;;;;;;;14.47;13.17;;;;;;;-141.26;100.00;62741.75;5185620;27;20229;-86
2023/09/11 04:23:12;;;;;;;15.03;13.63;;;;;;;-141.26;100.00;62741.75;5170980;27;20218;-87
2023/09/11 04:25:43;;;;;;;13.50;12.30;;;;;;;-141.26;100.00;62741.75;5164323;27;20225;-86
2023/09/11 04:28:13;;;;;;;13.47;12.30;;;;;;;-141.26;100.00;62741.75;5165395;27;20228;-85
2023/09/11 04:30:40;;;;;;;15.37;13.97;;;;;;;-141.26;100.00;62741.75;5164300;27;20286;-84
2023/09/11 04:33:11;;;;;;;15.80;14.50;;;;;;;-141.26;100.00;62741.75;5163898;27;20230;-84
2023/09/11 04:35:46;;;;;;;14.37;12.87;;;;;;;-141.26;100.00;62741.75;5165392;27;20222;-86
2023/09/11 04:38:31;;;;;;;14.30;12.90;;;;;;;-141.26;100.00;62741.75;5174247;27;20223;-87
2023/09/11 04:40:58;;;;;;;14.77;13.23;;;;;;;-141.26;100.00;62741.75;5202309;27;20233;-83
2023/09/11 04:43:28;;;;;;;13.37;12.17;;;;;;;-141.26;100.00;62741.75;5184741;27;20215;-83
2023/09/11 04:45:55;;;;;;;14.07;12.67;;;;;;;-141.26;100.00;62741.75;5184882;27;20215;-84
2023/09/11 04:48:24;;;;;;;15.23;13.63;;;;;;;-141.26;100.00;62741.75;5185048;27;20219;-85
2023/09/11 04:50:52;;;;;;;14.10;12.67;;;;;;;-141.26;100.00;62741.75;5184652;27;20215;-84
2023/09/11 04:53:19;;;;;;;13.20;11.90;;;;;;;-141.26;100.00;62741.75;5184397;27;20237;-84
2023/09/11 04:55:50;;;;;;;14.80;13.33;;;;;;;-141.26;100.00;62741.75;5167354;27;20275;-84
2023/09/11 04:58:18;;;;;;;13.63;12.43;;;;;;;-141.26;100.00;62741.75;5184978;27;20298;-85
2023/09/11 05:00:48;;;;;;;13.60;12.40;;;;;;;-141.26;100.00;62741.75;5184705;27;20220;-85
2023/09/11 05:03:15;;;;;;;13.40;11.47;;;;;;;-141.26;100.00;62741.75;5184751;27;20221;-83
2023/09/11 05:05:55;;;;;;;13.80;12.33;;;;;;;-141.26;100.00;62741.75;5184095;27;20227;-83
2023/09/11 05:08:24;;;;;;;14.03;12.73;;;;;;;-141.26;100.00;62741.75;5184793;27;20206;-83
2023/09/11 05:10:51;;;;;;;13.77;12.57;;;;;;;-141.26;100.00;62741.75;5184497;27;20260;-82
2023/09/11 05:13:21;;;;;;;13.43;12.23;;;;;;;-141.26;100.00;62741.75;5184386;27;20234;-82
2023/09/11 05:15:51;;;;;;;13.40;12.20;;;;;;;-141.26;100.00;62741.75;5198996;27;20223;-83
2023/09/11 05:18:29;;;;;;;13.37;12.17;;;;;;;-141.26;100.00;62741.75;5163462;27;20219;-83
2023/09/11 05:20:57;;;;;;;15.90;13.80;;;;;;;-141.26;100.00;62741.75;5163952;27;20215;-83
2023/09/11 05:23:28;;;;;;;15.83;14.33;;;;;;;-141.26;100.00;62741.75;5163470;27;20208;-83
2023/09/11 05:25:55;;;;;;;14.70;13.27;;;;;;;-141.26;100.00;62741.75;5163158;27;20226;-83
2023/09/11 05:28:22;;;;;;;17.93;16.27;;;;;;;-141.26;100.00;62741.75;5163469;27;20217;-80
2023/09/11 05:30:50;;;;;;;18.13;16.27;;;;;;;-141.26;100.00;62741.75;5163359;27;20251;-87
2023/09/11 05:33:17;;;;;;;17.67;16.03;;;;;;;-141.26;100.00;62741.75;5164755;27;20224;-87
2023/09/11 05:35:45;;;;;;;18.10;16.20;;;;;;;-141.26;100.00;62741.75;5182358;27;20269;-86
2023/09/11 05:38:14;;;;;;;17.53;15.93;;;;;;;-141.26;100.00;62741.75;5184351;27;20217;-87
2023/09/11 05:40:41;;;;;;;17.80;16.10;;;;;;;-141.26;100.00;62741.75;5184256;27;20232;-87
2023/09/11 05:43:08;;;;;;;18.97;17.17;;;;;;;-141.26;100.00;62741.75;5184260;27;20221;-87
2023/09/11 05:45:35;;;;;;;19.13;17.17;;;;;;;-141.26;100.00;62741.75;5184064;27;20275;-87
2023/09/11 05:48:02;;;;;;;20.90;18.47;;;;;;;-141.26;100.00;62741.75;5184218;27;20229;-87
2023/09/11 05:50:29;;;;;;;19.77;16.67;;;;;;;-141.26;100.00;62741.75;5163000;27;20228;-87
2023/09/11 05:52:56;;;;;;;18.23;16.53;;;;;;;-141.26;100.00;62741.75;5163113;27;20222;-87
2023/09/11 05:55:24;;;;;;;17.10;15.47;;;;;;;-141.26;100.00;62741.75;5145718;27;20316;-86
2023/09/11 05:57:51;;;;;;;17.37;15.53;;;;;;;-141.26;100.00;62741.75;5163114;27;20212;-87
2023/09/11 06:00:19;;;;;;;15.43;13.93;;;;;;;-141.26;100.00;62741.75;5162914;27;20211;-87
2023/09/11 06:02:46;;;;;;;16.40;14.77;;;;;;;-141.26;100.00;62741.75;5162944;27;20222;-86
2023/09/11 06:05:13;;;;;;;14.27;12.97;;;;;;;-141.26;100.00;62741.75;5172209;27;20246;-86
2023/09/11 06:07:40;;;;;;;15.77;14.40;;;;;;;-141.26;100.00;62741.75;5204602;27;20219;-87
2023/09/11 06:10:10;;;;;;;13.93;12.67;;;;;;;-141.26;100.00;62741.75;5188671;27;20217;-87
2023/09/11 06:12:38;;;;;;;14.67;13.40;;;;;;;-141.26;100.00;62741.75;5187085;27;20214;-86
2023/09/11 06:15:06;;;;;;;15.53;14.13;;;;;;;-141.26;100.00;62741.75;5187460;27;20234;-88
2023/09/11 06:17:33;;;;;;;14.43;13.20;;;;;;;-141.26;100.00;62741.75;5187324;27;20321;-88
2023/09/11 06:20:03;;;;;;;15.00;13.60;;;;;;;-141.26;100.00;62741.75;5187376;27;20214;-82
2023/09/11 06:22:30;;;;;;;13.90;12.60;;;;;;;-141.26;100.00;62741.75;5185335;27;20223;-83
2023/09/11 06:24:56;;;;;;;12.87;11.77;;;;;;;-141.26;100.00;62741.75;5204453;27;20295;-84
2023/09/11 06:27:23;;;;;;;13.20;12.10;;;;;;;-141.26;100.00;62741.75;5186542;27;20227;-84
2023/09/11 06:30:04;;;;;;;13.33;11.37;;;;;;;-141.26;100.00;62741.75;5186314;27;20253;-86
2023/09/11 06:32:31;;;;;;;12.87;11.60;;;;;;;-141.26;100.00;62741.75;5169858;27;20215;-87
2023/09/11 06:38:01;;;;;;;12.33;11.03;;;;;;;-141.26;100.00;62741.75;5128654;27;20227;-82
2023/09/11 06:41:03;;;;;;;12.10;11.00;;;;;;;-141.26;100.00;62741.75;5136868;27;20224;-82
2023/09/11 06:43:36;;;;;;;13.43;12.00;;;;;;;-141.26;100.00;62741.75;5145257;27;20207;-81
2023/09/11 06:46:05;;;;;;;12.20;11.00;;;;;;;-141.26;100.00;62741.75;5144910;27;20251;-82
2023/09/11 06:48:32;;;;;;;13.00;11.70;;;;;;;-141.26;100.00;62741.75;5144632;27;20220;-81
2023/09/11 06:51:02;;;;;;;12.97;11.73;;;;;;;-141.26;100.00;62741.75;5144470;27;20220;-84
2023/09/11 06:53:29;;;;;;;12.10;10.73;;;;;;;-141.26;100.00;62741.75;5144670;27;20228;-81
2023/09/11 06:55:58;;;;;;;12.03;10.83;;;;;;;-141.26;100.00;62741.75;5144936;27;20219;-82
2023/09/11 06:58:34;;;;;;;12.57;11.37;;;;;;;-141.26;100.00;62741.75;5146146;27;20263;-83
2023/09/11 07:01:15;;;;;;;12.73;11.47;;;;;;;-141.26;100.00;62741.75;5144487;27;20223;-84
2023/09/11 07:03:43;;;;;;;11.70;10.70;;;;;;;-141.26;100.00;62741.75;5127205;27;20323;-82
2023/09/11 07:06:16;;;;;;;12.63;11.33;;;;;;;-141.26;100.00;62741.75;5162164;27;20220;-81
2023/09/11 07:08:53;;;;;;;12.40;10.80;;;;;;;-141.26;100.00;62741.75;5144926;27;33756;-82
2023/09/11 07:11:20;;;;;;;11.70;10.50;;;;;;;-141.26;100.00;62741.75;5146007;27;20222;-81
2023/09/11 07:13:54;;;;;;;11.13;10.23;;;;;;;-141.26;100.00;62741.75;5144557;27;20279;-81
2023/09/11 07:16:25;;;;;;;11.67;10.57;;;;;;;-141.26;100.00;62741.75;5144346;27;20207;-80
2023/09/11 07:21:44;;;;;;;12.23;11.10;;;;;;;-141.26;100.00;62741.75;5143689;27;20212;-80
2023/09/11 07:24:14;;;;;;;11.50;10.50;;;;;;;-141.26;100.00;62741.75;5143998;27;20220;-82
2023/09/11 07:26:41;;;;;;;11.37;10.20;;;;;;;-141.26;100.00;62741.75;5141594;27;20228;-82
2023/09/11 07:29:08;;;;;;;11.77;10.57;;;;;;;-141.26;100.00;62741.75;5145392;27;20220;-80
2023/09/11 07:31:38;;;;;;;12.90;11.60;;;;;;;-141.26;100.00;62741.75;5143822;27;20251;-81
2023/09/11 07:34:05;;;;;;;12.37;11.27;;;;;;;-141.26;100.00;62741.75;5143129;27;20227;-81
2023/09/11 07:36:32;;;;;;;11.30;10.27;;;;;;;-141.26;100.00;62741.75;5144049;27;20255;-81
2023/09/11 07:38:59;;;;;;;10.90;10.00;;;;;;;-141.26;100.00;62741.75;5141914;27;20228;-82
2023/09/11 07:41:28;;;;;;;12.83;11.53;;;;;;;-141.26;100.00;62741.75;5130618;27;20224;-81
2023/09/11 07:43:58;;;;;;;10.90;9.90;;;;;;;-141.26;100.00;62741.75;5138253;27;20235;-81
2023/09/11 07:46:25;;;;;;;11.17;10.17;;;;;;;-141.26;100.00;62741.75;5137444;27;20221;-81
2023/09/11 07:48:55;;;;;;;11.33;10.20;;;;;;;-141.26;100.00;62741.75;5140538;27;20221;-82
2023/09/11 07:51:22;;;;;;;11.03;10.03;;;;;;;-141.26;100.00;62741.75;5124950;27;20274;-81
2023/09/11 07:53:49;;;;;;;11.30;10.37;;;;;;;-141.26;100.00;62741.75;5133102;27;20224;-82
2023/09/11 07:56:16;;;;;;;11.23;10.00;;;;;;;-141.26;100.00;62741.75;5141444;27;20304;-84
2023/09/11 07:58:43;;;;;;;10.43;9.40;;;;;;;-141.26;100.00;62741.75;5143190;27;20220;-84
2023/09/11 08:01:10;;;;;;;10.13;9.13;;;;;;;-141.26;100.00;62741.75;5126328;27;20235;-82
2023/09/11 08:03:37;;;;;;;12.23;9.77;;;;;;;-141.26;100.00;62741.75;5124994;27;20221;-83
2023/09/11 08:06:06;;;;;;;10.63;9.53;;;;;;;-141.26;100.00;62741.75;5137139;27;20216;-82
2023/09/11 08:08:34;;;;;;;10.67;9.70;;;;;;;-141.26;100.00;62741.75;5154636;27;20319;-81
2023/09/11 08:11:12;;;;;;;10.87;9.87;;;;;;;-141.26;100.00;62741.75;5125101;27;20270;-80
2023/09/11 08:13:40;;;;;;;10.37;9.47;;;;;;;-141.26;100.00;62741.75;5124528;27;20268;-80
2023/09/11 08:16:07;;;;;;;10.07;9.27;;;;;;;-141.26;100.00;62741.75;5131972;27;20235;-80
2023/09/11 08:18:34;;;;;;;10.20;9.40;;;;;;;-141.26;100.00;62741.75;5122857;27;20225;-80
2023/09/11 08:21:03;;;;;;;10.47;9.57;;;;;;;-141.26;100.00;62741.75;5125101;27;20259;-81
2023/09/11 08:23:34;;;;;;;9.90;8.93;;;;;;;-141.26;100.00;62741.75;5133844;27;20216;-80
2023/09/11 08:26:02;;;;;;;10.00;9.20;;;;;;;-141.26;100.00;62741.75;5124292;27;20256;-85
2023/09/11 08:28:29;;;;;;;9.70;8.90;;;;;;;-141.26;100.00;62741.75;5122203;27;20271;-84
2023/09/11 08:30:57;;;;;;;9.97;9.10;;;;;;;-141.26;100.00;62741.75;5122701;28;20221;-84
2023/09/11 08:33:25;;;;;;;10.20;9.30;;;;;;;-141.26;100.00;62741.75;5143740;27;20231;-80
2023/09/11 08:35:53;;;;;;;9.57;8.73;;;;;;;-141.26;100.00;62741.75;5122100;28;20232;-82
2023/09/11 08:38:20;;;;;;;9.93;9.03;;;;;;;-141.26;100.00;62741.75;5123799;27;20227;-81
2023/09/11 08:40:49;;;;;;;9.87;8.93;;;;;;;-141.26;100.00;62741.75;5135201;27;20228;-84
2023/09/11 08:43:22;;;;;;;9.90;8.90;;;;;;;-141.26;100.00;62741.75;5142567;27;20224;-84
2023/09/11 08:45:50;;;;;;;9.57;8.70;;;;;;;-141.26;100.00;62741.75;5144178;27;20223;-83
2023/09/11 08:48:22;;;;;;;9.30;8.50;;;;;;;-141.26;100.00;62741.75;5126587;27;20304;-83
2023/09/11 08:50:53;;;;;;;9.63;8.60;;;;;;;-141.26;100.00;62741.75;5139397;27;20228;-82
2023/09/11 08:53:23;;;;;;;9.40;8.60;;;;;;;-141.26;100.00;62741.75;5126249;27;20225;-82
2023/09/11 08:55:54;;;;;;;9.37;8.57;;;;;;;-141.26;100.00;62741.75;5140036;27;20220;-83
2023/09/11 08:58:25;;;;;;;9.43;8.73;;;;;;;-141.26;100.00;62741.75;5140137;27;20216;-84
2023/09/11 09:00:53;;;;;;;8.67;8.00;;;;;;;-141.26;100.00;62741.75;5139342;27;20232;-81
2023/09/11 09:03:21;;;;;;;9.30;8.50;;;;;;;-141.26;100.00;62741.75;5140958;27;20216;-82
2023/09/11 09:05:52;;;;;;;9.23;8.40;;;;;;;-141.26;100.00;62741.75;5122259;28;20209;-81
2023/09/11 09:08:21;;;;;;;9.40;8.50;;;;;;;-141.26;100.00;62741.75;5123380;27;20303;-82
2023/09/11 09:10:49;;;;;;;9.23;8.43;;;;;;;-141.26;100.00;62741.75;5131283;27;20256;-83
2023/09/11 09:13:20;;;;;;;9.80;8.67;;;;;;;-141.26;100.00;62741.75;5122311;27;20270;-82
2023/09/11 09:15:49;;;;;;;9.13;8.33;;;;;;;-141.26;100.00;62741.75;5124395;27;20224;-82
2023/09/11 09:18:21;;;;;;;9.87;8.87;;;;;;;-141.26;100.00;62741.75;5134398;27;20216;-82
2023/09/11 09:20:51;;;;;;;8.90;8.20;;;;;;;-141.26;100.00;62741.75;5142505;27;20215;-80
2023/09/11 09:23:19;;;;;;;9.70;8.80;;;;;;;-141.26;100.00;62741.75;5138441;27;20228;-83
2023/09/11 09:25:46;;;;;;;9.07;8.17;;;;;;;-141.26;100.00;62741.75;5123321;27;20220;-86
2023/09/11 09:28:28;;;;;;;9.73;8.93;;;;;;;-141.26;100.00;62741.75;5122396;27;20224;-83
2023/09/11 09:30:56;;;;;;;9.17;8.40;;;;;;;-141.26;100.00;62741.75;5122137;28;20224;-85
2023/09/11 09:33:24;;;;;;;8.50;7.88;;;;;;;-141.26;100.00;62741.75;5129551;27;20224;-85
2023/09/11 09:36:00;;;;;;;9.00;8.20;;;;;;;-141.26;100.00;62741.75;5141761;27;20235;-85
2023/09/11 09:38:32;;;;;;;9.23;8.38;;;;;;;-141.26;100.00;62741.75;5132914;27;20232;-85
2023/09/11 09:41:09;;;;;;;9.75;8.85;;;;;;;-141.26;100.00;62741.75;5124653;27;20224;-82
2023/09/11 09:43:52;;;;;;;9.63;8.83;;;;;;;-141.26;100.00;62741.75;5127061;27;20255;-86
2023/09/11 09:46:20;;;;;;;8.90;8.10;;;;;;;-141.26;100.00;62741.75;5146078;27;20246;-85
2023/09/11 09:48:47;;;;;;;9.25;8.35;;;;;;;-141.26;100.00;62741.75;5145955;27;20224;-85
2023/09/11 09:51:22;;;;;;;8.85;8.05;;;;;;;-141.26;100.00;62741.75;5141742;27;20220;-87
2023/09/11 09:53:57;;;;;;;8.57;7.75;;;;;;;-141.26;100.00;62741.75;5150739;27;20418;-83
2023/09/11 09:56:24;;;;;;;8.32;7.63;;;;;;;-141.26;100.00;62741.75;5158949;27;20279;-83
2023/09/11 09:58:53;;;;;;;8.68;7.55;;;;;;;-141.26;100.00;62741.75;5127479;27;20274;-83
2023/09/11 10:01:22;;;;;;;8.23;7.53;;;;;;;-141.26;100.00;62741.75;5128578;27;20220;-83
2023/09/11 10:03:50;;;;;;;8.35;7.55;;;;;;;-141.26;100.00;62741.75;5125190;27;20681;-82
2023/09/11 10:06:20;;;;;;;8.45;7.65;;;;;;;-141.26;100.00;62741.75;5126710;27;20308;-83
2023/09/11 10:08:48;;;;;;;8.57;7.93;;;;;;;-141.26;100.00;62741.75;5126064;27;20209;-89
2023/09/11 10:11:29;;;;;;;8.63;7.85;;;;;;;-141.26;100.00;62741.75;5136898;27;20228;-84
2023/09/11 10:14:00;;;;;;;8.13;7.43;;;;;;;-141.26;100.00;62741.75;5141123;27;20230;-84
2023/09/11 10:16:31;;;;;;;8.70;7.95;;;;;;;-141.26;100.00;62741.75;5136723;27;20264;-83
2023/09/11 10:19:02;;;;;;;8.25;7.55;;;;;;;-141.26;100.00;62741.75;5147665;27;20235;-84
2023/09/11 10:21:35;;;;;;;8.00;7.30;;;;;;;-141.26;100.00;62741.75;5145450;27;20220;-86
2023/09/11 10:24:02;;;;;;;8.07;7.38;;;;;;;-141.26;100.00;62741.75;5145321;27;20321;-84
2023/09/11 10:26:35;;;;;;;7.85;7.25;;;;;;;-141.26;100.00;62741.75;5137930;27;20224;-81
2023/09/11 10:29:07;;;;;;;6.97;6.38;;;;;;;-141.26;100.00;62741.75;5142956;27;20555;-84
2023/09/11 10:31:45;;;;;;;7.50;6.90;;;;;;;-141.26;100.00;62741.75;5145011;27;20227;-83
2023/09/11 10:34:16;;;;;;;7.68;7.05;;;;;;;-141.26;100.00;62741.75;5135057;27;20262;-83
2023/09/11 10:36:58;;;;;;;8.55;7.53;;;;;;;-141.26;100.00;62741.75;5162438;27;20316;-86
2023/09/11 10:39:30;;;;;;;7.72;7.07;;;;;;;-141.26;100.00;62741.75;5126334;27;20220;-87
2023/09/11 10:41:58;;;;;;;7.95;7.25;;;;;;;-141.26;100.00;62741.75;5141721;27;20223;-89
2023/09/11 10:44:36;;;;;;;7.50;6.80;;;;;;;-141.26;100.00;62741.75;5145119;27;20307;-82
2023/09/11 10:47:05;;;;;;;8.18;7.40;;;;;;;-141.26;100.00;62741.75;5128524;27;20275;-82
2023/09/11 10:49:38;;;;;;;7.05;6.38;;;;;;;-141.26;100.00;62741.75;5124308;28;20225;-85
2023/09/11 10:52:08;;;;;;;7.32;6.63;;;;;;;-141.26;100.00;62741.75;5128694;27;20228;-87
2023/09/11 10:55:09;;;;;;;7.20;6.60;;;;;;;-141.26;100.00;62741.75;5141841;27;20236;-88
2023/09/11 10:57:36;;;;;;;7.20;6.60;;;;;;;-141.26;100.00;62741.75;5139800;27;20236;-91
2023/09/11 11:00:23;;;;;;;7.85;7.13;;;;;;;-141.26;100.00;62741.75;5134323;27;20228;-90
2023/09/11 11:11:27;;;;;;;7.45;6.85;;;;;;;-141.26;100.00;62741.75;5039319;28;20270;-90
2023/09/11 11:14:33;;;;;;;6.88;6.25;;;;;;;-141.26;100.00;62741.75;5007109;28;20319;-89
2023/09/11 11:24:55;;;;;;;6.50;5.90;;;;;;;-141.26;100.00;62741.75;4930824;29;20222;-91
2023/09/11 11:27:48;;;;;;;7.85;5.95;;;;;;;-141.26;100.00;62741.75;4944389;29;20227;-89
2023/09/11 11:30:26;;;;;;;;;;;;;;;;;;;;;
2023/09/11 11:37:36;;;;;;;7.68;5.93;;;;;;;-141.26;100.00;62741.75;4953963;28;20240;-90
2023/09/11 11:44:05;;;;;;;5.63;5.22;;;;;;;-141.26;100.00;62741.75;4942671;28;20225;-92
2023/09/11 11:46:32;;;;;;;5.85;5.45;;;;;;;-141.26;100.00;62741.75;4991781;28;20248;-89